Time;durP1;ratioP1;P1;durP2;ratioP2;P2;SDS_P1;SDS_P2;PMS_P1;PMS_P2;Temp;Humidity;BMP_temperature;BMP_pressure;BME280_temperature;BME280_humidity;BME280_pressure;Samples;Min_cycle;Max_cycle;Signal;HPM_P1;HPM_P2
2021/12/19 00:02:38;;;;;;;46.07;22.20;;;6.80;99.90;;;;;;5030971;28;20241;-67
2021/12/19 00:10:25;;;;;;;44.33;20.53;;;6.70;99.90;;;;;;5034556;28;20183;-67
2021/12/19 00:12:52;;;;;;;46.83;21.93;;;6.70;99.90;;;;;;5033914;28;20180;-67
2021/12/19 00:15:18;;;;;;;45.47;22.03;;;6.80;99.90;;;;;;5033970;28;20245;-67
2021/12/19 00:17:43;;;;;;;49.20;19.13;;;6.80;99.90;;;;;;5034730;28;20179;-67
2021/12/19 00:20:09;;;;;;;49.67;21.60;;;6.80;99.90;;;;;;5034066;28;20185;-66
2021/12/19 00:22:35;;;;;;;48.00;19.97;;;6.70;99.90;;;;;;5034204;28;20252;-67
2021/12/19 00:25:01;;;;;;;39.27;20.70;;;6.70;99.90;;;;;;5034038;28;20184;-66
2021/12/19 00:27:26;;;;;;;44.93;20.27;;;6.70;99.90;;;;;;5034161;28;20214;-67
2021/12/19 00:29:52;;;;;;;42.50;19.97;;;6.60;99.90;;;;;;5034206;28;20262;-67
2021/12/19 00:32:18;;;;;;;37.37;17.63;;;6.60;99.90;;;;;;5033780;28;20237;-67
2021/12/19 00:34:43;;;;;;;44.50;19.13;;;6.60;99.90;;;;;;5033810;28;20171;-67
2021/12/19 00:37:10;;;;;;;38.23;19.50;;;6.70;99.90;;;;;;5034172;28;20180;-67
2021/12/19 00:39:36;;;;;;;39.83;19.77;;;6.70;99.90;;;;;;5034051;28;20176;-66
2021/12/19 00:42:07;;;;;;;49.63;21.07;;;6.70;99.90;;;;;;5034241;28;20707;-67
2021/12/19 00:44:34;;;;;;;45.37;19.87;;;6.70;99.90;;;;;;5034039;28;20175;-67
2021/12/19 00:47:07;;;;;;;44.10;18.57;;;6.70;99.90;;;;;;5033496;28;20720;-66
2021/12/19 00:49:35;;;;;;;43.33;18.73;;;6.70;99.90;;;;;;5033791;28;20257;-65
2021/12/19 00:52:02;;;;;;;39.30;18.57;;;6.70;99.90;;;;;;5033397;28;20270;-66
2021/12/19 00:54:28;;;;;;;35.67;17.40;;;6.70;99.90;;;;;;5033576;28;20178;-66
2021/12/19 00:56:54;;;;;;;37.50;18.37;;;6.70;99.90;;;;;;5033609;28;20176;-66
2021/12/19 00:59:20;;;;;;;33.33;16.70;;;6.80;99.90;;;;;;5033422;28;20225;-66
2021/12/19 01:01:46;;;;;;;40.00;17.37;;;6.70;99.90;;;;;;5032029;28;20199;-65
2021/12/19 01:04:14;;;;;;;44.23;18.27;;;6.70;99.90;;;;;;5033406;28;20202;-67
2021/12/19 01:06:41;;;;;;;37.17;17.63;;;6.70;99.90;;;;;;5033132;28;20290;-66
2021/12/19 01:09:08;;;;;;;33.97;17.77;;;6.70;99.90;;;;;;5033005;28;20202;-66
2021/12/19 01:11:34;;;;;;;38.43;18.30;;;6.70;99.90;;;;;;5033446;28;20231;-66
2021/12/19 01:14:01;;;;;;;39.47;18.47;;;6.70;99.90;;;;;;5032007;28;20609;-66
2021/12/19 01:16:27;;;;;;;34.60;18.37;;;6.70;99.90;;;;;;5033466;28;20225;-65
2021/12/19 01:18:52;;;;;;;35.90;17.80;;;6.70;99.90;;;;;;5032756;28;20583;-66
2021/12/19 01:21:18;;;;;;;31.87;17.90;;;6.70;99.90;;;;;;5033201;28;20196;-66
2021/12/19 01:23:44;;;;;;;40.20;19.33;;;6.70;99.90;;;;;;5032643;28;20641;-66
2021/12/19 01:26:10;;;;;;;35.00;18.60;;;6.70;99.90;;;;;;5033003;28;20180;-66
2021/12/19 01:28:37;;;;;;;33.60;19.00;;;6.70;99.90;;;;;;5033167;28;20179;-67
2021/12/19 01:31:03;;;;;;;30.37;18.93;;;6.70;99.90;;;;;;5032800;28;20192;-66
2021/12/19 01:33:28;;;;;;;35.67;18.40;;;6.70;99.90;;;;;;5032443;28;20634;-65
2021/12/19 01:35:54;;;;;;;36.50;19.70;;;6.70;99.90;;;;;;5032733;28;20251;-66
2021/12/19 01:38:20;;;;;;;30.77;16.97;;;6.70;99.90;;;;;;5032660;28;20897;-66
2021/12/19 01:40:46;;;;;;;30.33;17.37;;;6.70;99.90;;;;;;5026330;28;20262;-65
2021/12/19 01:43:11;;;;;;;28.73;16.73;;;6.70;99.90;;;;;;5012654;28;20183;-66
2021/12/19 01:45:40;;;;;;;25.30;16.87;;;6.70;99.90;;;;;;5021329;28;20180;-67
2021/12/19 01:48:10;;;;;;;31.43;17.20;;;6.70;99.90;;;;;;5032613;28;20203;-66
2021/12/19 01:50:36;;;;;;;21.90;15.23;;;6.80;99.90;;;;;;5032248;28;20204;-66
2021/12/19 01:53:08;;;;;;;24.90;15.40;;;6.80;99.90;;;;;;5032378;28;20206;-66
2021/12/19 01:55:34;;;;;;;32.10;16.67;;;6.80;99.90;;;;;;5032305;28;20203;-66
2021/12/19 01:58:00;;;;;;;25.93;15.20;;;6.70;99.90;;;;;;5032472;28;20205;-67
2021/12/19 02:00:35;;;;;;;22.57;14.70;;;6.60;99.90;;;;;;5032309;28;20175;-66
2021/12/19 02:03:01;;;;;;;26.47;15.10;;;6.60;99.90;;;;;;5032181;28;20283;-65
2021/12/19 02:05:28;;;;;;;23.13;14.63;;;6.70;99.90;;;;;;5030938;28;20190;-66
2021/12/19 02:07:55;;;;;;;23.03;13.83;;;6.70;99.90;;;;;;5032163;28;20257;-67
2021/12/19 02:10:25;;;;;;;28.80;15.97;;;6.80;99.90;;;;;;5032065;28;20267;-66
2021/12/19 02:12:53;;;;;;;22.67;15.33;;;6.80;99.90;;;;;;5031791;28;20568;-65
2021/12/19 02:15:22;;;;;;;21.97;14.43;;;6.80;99.90;;;;;;5031897;28;20653;-66
2021/12/19 02:17:52;;;;;;;22.60;14.23;;;6.80;99.90;;;;;;5032094;28;20233;-68
2021/12/19 02:20:20;;;;;;;24.67;14.03;;;6.70;99.90;;;;;;5031938;28;20641;-68
2021/12/19 02:22:46;;;;;;;19.43;13.77;;;6.70;99.90;;;;;;5031663;28;20263;-67
2021/12/19 02:25:14;;;;;;;17.13;13.13;;;6.70;99.90;;;;;;5031716;28;20969;-67
2021/12/19 02:27:40;;;;;;;24.77;12.60;;;6.70;99.90;;;;;;5012287;28;20222;-68
2021/12/19 02:30:08;;;;;;;17.37;12.63;;;6.70;99.90;;;;;;5012604;28;20226;-67
2021/12/19 02:32:35;;;;;;;20.10;14.30;;;6.60;99.90;;;;;;5031000;28;20248;-66
2021/12/19 02:35:07;;;;;;;20.67;12.83;;;6.60;99.90;;;;;;5031916;28;20184;-66
2021/12/19 02:48:12;;;;;;;18.77;13.77;;;6.60;99.90;;;;;;5031310;28;20218;-67
2021/12/19 02:50:49;;;;;;;20.93;14.27;;;6.60;99.90;;;;;;5031733;28;20195;-66
2021/12/19 02:53:19;;;;;;;15.80;13.67;;;6.70;99.90;;;;;;5030933;28;20186;-67
2021/12/19 02:55:45;;;;;;;23.07;14.60;;;6.60;99.90;;;;;;5030361;28;20201;-67
2021/12/19 02:58:11;;;;;;;21.77;13.67;;;6.60;99.90;;;;;;5031334;28;20270;-67
2021/12/19 03:00:38;;;;;;;19.80;13.23;;;6.60;99.90;;;;;;5031485;28;20512;-67
2021/12/19 03:03:04;;;;;;;16.80;13.07;;;6.70;99.90;;;;;;5030971;28;20184;-66
2021/12/19 03:05:32;;;;;;;20.07;12.97;;;6.70;99.90;;;;;;5031207;28;20182;-65
2021/12/19 03:08:00;;;;;;;16.57;13.07;;;6.70;99.90;;;;;;5031256;28;20199;-66
2021/12/19 03:18:41;;;;;;;21.13;13.13;;;6.70;99.90;;;;;;5015118;28;20179;-66
2021/12/19 03:21:12;;;;;;;19.67;12.93;;;6.60;99.90;;;;;;5031161;28;20191;-66
2021/12/19 03:23:38;;;;;;;19.97;13.23;;;6.60;99.90;;;;;;5031097;28;20168;-65
2021/12/19 03:26:03;;;;;;;20.83;12.93;;;6.60;99.90;;;;;;5031222;28;20183;-67
2021/12/19 03:28:29;;;;;;;18.40;13.23;;;6.60;99.90;;;;;;5031259;28;20582;-67
2021/12/19 03:30:55;;;;;;;17.10;12.17;;;6.60;99.90;;;;;;5030817;28;20210;-66
2021/12/19 03:33:20;;;;;;;16.30;11.80;;;6.60;99.90;;;;;;5030854;28;20633;-66
2021/12/19 03:35:47;;;;;;;19.97;12.90;;;6.70;99.90;;;;;;5030826;28;20262;-67
2021/12/19 03:38:14;;;;;;;19.20;12.23;;;6.70;99.90;;;;;;5033432;28;20554;-66
2021/12/19 03:40:44;;;;;;;22.90;13.67;;;6.70;99.90;;;;;;5034656;28;20662;-67
2021/12/19 03:43:14;;;;;;;21.17;12.70;;;6.70;99.90;;;;;;5034777;28;20270;-67
2021/12/19 03:45:41;;;;;;;19.30;13.20;;;6.80;99.90;;;;;;5034841;28;20266;-65
2021/12/19 03:48:11;;;;;;;17.97;13.13;;;6.80;99.90;;;;;;5034923;28;20306;-66
2021/12/19 03:50:38;;;;;;;20.70;12.47;;;6.80;99.90;;;;;;5033409;28;20547;-67
2021/12/19 03:53:04;;;;;;;18.80;13.17;;;6.70;99.90;;;;;;5034559;28;20175;-68
2021/12/19 03:55:30;;;;;;;22.17;13.67;;;6.70;99.90;;;;;;5032895;28;20179;-65
2021/12/19 03:57:57;;;;;;;16.73;11.37;;;6.70;99.90;;;;;;5034608;28;20175;-67
2021/12/19 04:00:26;;;;;;;24.23;14.80;;;6.60;99.90;;;;;;5034544;28;20183;-66
2021/12/19 04:02:54;;;;;;;22.40;14.50;;;6.60;99.90;;;;;;5034076;28;20270;-65
2021/12/19 04:05:20;;;;;;;14.67;12.90;;;6.60;99.90;;;;;;5034652;28;20182;-67
2021/12/19 04:07:46;;;;;;;18.57;12.80;;;6.60;99.90;;;;;;5034204;28;20298;-66
2021/12/19 04:10:12;;;;;;;20.30;13.07;;;6.60;99.90;;;;;;5034512;28;20603;-65
2021/12/19 04:12:38;;;;;;;19.30;12.53;;;6.60;99.90;;;;;;5033944;28;20193;-66
2021/12/19 04:15:07;;;;;;;19.83;15.27;;;6.60;99.90;;;;;;5034561;28;20178;-66
2021/12/19 04:17:33;;;;;;;21.20;14.53;;;6.60;99.90;;;;;;5034345;28;20187;-66
2021/12/19 04:19:59;;;;;;;22.33;14.30;;;6.60;99.90;;;;;;5034323;28;20176;-64
2021/12/19 04:22:24;;;;;;;21.07;15.37;;;6.70;99.90;;;;;;5033789;28;20691;-66
2021/12/19 04:24:50;;;;;;;23.37;15.70;;;6.70;99.90;;;;;;5034053;28;20229;-66
2021/12/19 04:27:15;;;;;;;18.93;15.60;;;6.70;99.90;;;;;;5033736;28;20294;-66
2021/12/19 04:29:41;;;;;;;21.57;15.07;;;6.70;99.90;;;;;;5034151;28;20676;-66
2021/12/19 04:32:08;;;;;;;25.93;16.17;;;6.70;99.90;;;;;;5034063;28;20192;-67
2021/12/19 04:34:34;;;;;;;19.83;15.10;;;6.60;99.90;;;;;;5034225;28;20172;-67
2021/12/19 04:37:08;;;;;;;23.97;16.97;;;6.70;99.90;;;;;;5033751;28;20190;-66
2021/12/19 04:39:53;;;;;;;25.30;15.93;;;6.70;99.90;;;;;;5031992;28;20266;-65
2021/12/19 04:53:19;;;;;;;22.33;13.40;;;6.60;99.90;;;;;;5033655;28;20263;-68
2021/12/19 05:01:13;;;;;;;18.73;12.73;;;6.60;99.90;;;;;;5033597;28;20191;-67
2021/12/19 05:04:04;;;;;;;15.97;12.87;;;6.60;99.90;;;;;;5033009;28;20571;-67
2021/12/19 05:14:00;;;;;;;18.67;13.47;;;6.60;99.90;;;;;;5032622;28;20199;-67
2021/12/19 05:15:07;;;;;;;14.77;12.70;;;6.60;99.90;;;;;;5011193;28;20314;-66
2021/12/19 05:17:34;;;;;;;15.90;14.07;;;6.50;99.90;;;;;;5015006;28;20582;-64
2021/12/19 05:20:13;;;;;;;18.07;13.43;;;6.50;99.90;;;;;;5032948;28;20195;-66
2021/12/19 05:22:47;;;;;;;21.17;14.00;;;6.50;99.90;;;;;;5032755;28;20179;-66
2021/12/19 05:25:15;;;;;;;19.53;13.37;;;6.50;99.90;;;;;;5032893;28;20237;-68
2021/12/19 05:27:43;;;;;;;17.50;13.70;;;6.50;99.90;;;;;;5031577;28;20243;-65
2021/12/19 05:30:09;;;;;;;19.43;14.60;;;6.50;99.90;;;;;;5032942;28;20262;-66
2021/12/19 05:32:35;;;;;;;21.20;15.07;;;6.50;99.90;;;;;;5032138;28;20661;-65
2021/12/19 05:35:00;;;;;;;17.53;12.90;;;6.50;99.90;;;;;;5032958;28;20182;-65
2021/12/19 05:45:38;;;;;;;19.90;13.27;;;6.50;99.90;;;;;;5032152;28;20225;-66
2021/12/19 05:48:04;;;;;;;15.33;11.87;;;6.50;99.90;;;;;;5032170;28;20599;-68
2021/12/19 05:50:29;;;;;;;19.17;13.00;;;6.50;99.90;;;;;;5025166;28;20261;-67
2021/12/19 05:52:55;;;;;;;16.27;12.67;;;6.50;99.90;;;;;;5012784;28;20634;-65
2021/12/19 05:55:21;;;;;;;21.53;12.57;;;6.50;99.90;;;;;;5013686;28;20212;-66
2021/12/19 05:57:47;;;;;;;19.83;12.47;;;6.50;99.90;;;;;;5032501;28;20675;-66
2021/12/19 06:00:16;;;;;;;17.60;12.87;;;6.60;99.90;;;;;;5032355;28;20229;-66
2021/12/19 06:02:42;;;;;;;16.33;12.00;;;6.60;99.90;;;;;;5031671;28;20649;-68
2021/12/19 06:05:09;;;;;;;16.70;11.47;;;6.60;99.90;;;;;;5032395;28;20182;-68
2021/12/19 06:07:35;;;;;;;20.63;12.60;;;6.50;99.90;;;;;;5031907;28;20276;-66
2021/12/19 06:10:01;;;;;;;18.80;11.80;;;6.50;99.90;;;;;;5032164;28;20642;-66
2021/12/19 06:12:26;;;;;;;14.07;11.30;;;6.50;99.90;;;;;;5031767;28;20274;-66
2021/12/19 06:14:53;;;;;;;14.00;12.13;;;6.50;99.90;;;;;;5032202;28;20175;-67
2021/12/19 06:17:18;;;;;;;20.23;12.67;;;6.50;99.90;;;;;;5031992;28;20563;-66
2021/12/19 06:19:44;;;;;;;16.17;12.67;;;6.60;99.90;;;;;;5031749;28;20180;-65
2021/12/19 06:22:09;;;;;;;19.77;12.23;;;6.50;99.90;;;;;;5031445;28;20249;-66
2021/12/19 06:24:35;;;;;;;12.33;10.97;;;6.50;99.90;;;;;;5015367;28;20184;-66
2021/12/19 06:27:02;;;;;;;16.13;11.57;;;6.50;99.90;;;;;;5012139;28;20234;-66
2021/12/19 06:29:29;;;;;;;20.80;13.07;;;6.50;99.90;;;;;;5020988;28;20198;-66
2021/12/19 06:31:56;;;;;;;19.97;13.63;;;6.60;99.90;;;;;;5031805;28;20192;-66
2021/12/19 06:34:22;;;;;;;16.17;12.87;;;6.60;99.90;;;;;;5031630;28;20183;-66
2021/12/19 06:36:50;;;;;;;14.53;12.07;;;6.70;99.90;;;;;;5030589;28;20188;-67
2021/12/19 06:39:15;;;;;;;18.43;14.00;;;6.60;99.90;;;;;;5031480;28;20190;-66
2021/12/19 06:41:41;;;;;;;14.60;13.00;;;6.60;99.90;;;;;;5031978;28;20684;-66
2021/12/19 06:44:07;;;;;;;17.53;14.30;;;6.60;99.90;;;;;;5031310;28;20210;-66
2021/12/19 06:46:33;;;;;;;20.77;12.87;;;6.50;99.90;;;;;;5031973;28;20583;-66
2021/12/19 06:48:58;;;;;;;17.40;13.60;;;6.50;99.90;;;;;;5030858;28;20183;-66
2021/12/19 06:51:25;;;;;;;17.53;12.73;;;6.60;99.90;;;;;;5031451;28;20191;-66
2021/12/19 06:53:50;;;;;;;17.80;13.03;;;6.60;99.90;;;;;;5031040;28;20183;-66
2021/12/19 06:56:16;;;;;;;16.80;13.50;;;6.70;99.90;;;;;;5031747;28;20583;-68
2021/12/19 06:58:42;;;;;;;17.40;14.40;;;6.60;99.90;;;;;;5031136;28;20203;-69
2021/12/19 07:01:08;;;;;;;19.90;13.53;;;6.60;99.90;;;;;;5031386;28;20222;-65
2021/12/19 07:03:33;;;;;;;20.13;13.50;;;6.60;99.90;;;;;;5031274;28;20222;-65
2021/12/19 07:05:59;;;;;;;22.60;14.50;;;6.70;99.90;;;;;;5031199;28;20299;-64
2021/12/19 07:08:25;;;;;;;21.90;14.33;;;6.70;99.90;;;;;;5031189;28;20673;-65
2021/12/19 07:10:51;;;;;;;25.40;15.10;;;6.70;99.90;;;;;;5031424;28;20297;-66
2021/12/19 07:13:20;;;;;;;21.70;14.63;;;6.70;99.90;;;;;;5029849;28;20190;-65
2021/12/19 07:15:50;;;;;;;22.57;14.73;;;6.70;99.90;;;;;;5031156;28;20172;-66
2021/12/19 07:18:16;;;;;;;19.67;13.50;;;6.70;99.90;;;;;;5029844;28;20560;-64
2021/12/19 07:20:43;;;;;;;22.53;14.30;;;6.60;99.90;;;;;;5031026;28;20726;-66
2021/12/19 07:23:22;;;;;;;29.50;13.97;;;6.60;99.90;;;;;;5030797;28;20184;-68
2021/12/19 07:25:48;;;;;;;21.40;13.13;;;6.60;99.90;;;;;;5030831;28;20404;-65
2021/12/19 07:28:14;;;;;;;18.87;13.57;;;6.60;99.90;;;;;;5030903;28;20626;-66
2021/12/19 07:30:40;;;;;;;23.60;13.53;;;6.60;99.90;;;;;;5031120;28;20202;-67
2021/12/19 07:33:08;;;;;;;19.10;13.07;;;6.50;99.90;;;;;;5030496;28;20187;-66
2021/12/19 07:35:37;;;;;;;15.40;12.10;;;6.40;99.90;;;;;;5031121;28;20172;-67
2021/12/19 07:38:04;;;;;;;17.57;11.97;;;6.30;99.90;;;;;;5030607;28;20209;-66
2021/12/19 07:40:39;;;;;;;13.90;10.17;;;6.20;99.90;;;;;;5031040;28;20561;-66
2021/12/19 07:43:08;;;;;;;14.10;10.73;;;6.20;99.90;;;;;;5030581;28;20187;-67
2021/12/19 07:45:34;;;;;;;14.47;9.80;;;6.20;99.90;;;;;;5030878;28;20172;-67
2021/12/19 07:48:00;;;;;;;16.70;10.63;;;6.10;99.90;;;;;;5030432;28;20210;-66
2021/12/19 07:50:27;;;;;;;18.27;11.27;;;6.20;99.90;;;;;;5029766;28;20183;-67
2021/12/19 07:52:53;;;;;;;16.40;10.57;;;6.10;99.90;;;;;;5029318;28;20175;-67
2021/12/19 07:55:20;;;;;;;18.10;9.50;;;6.10;99.90;;;;;;5031299;28;20171;-68
2021/12/19 07:57:45;;;;;;;12.17;9.67;;;6.10;99.90;;;;;;5030683;28;20188;-68
2021/12/19 08:00:13;;;;;;;10.90;9.17;;;6.10;99.90;;;;;;5031369;28;20237;-67
2021/12/19 08:02:40;;;;;;;14.73;8.90;;;6.10;99.90;;;;;;5030427;28;20219;-67
2021/12/19 08:05:06;;;;;;;11.57;9.30;;;6.10;99.90;;;;;;5029664;28;20206;-67
2021/12/19 08:07:32;;;;;;;11.07;9.83;;;6.10;99.90;;;;;;5030316;28;20203;-66
2021/12/19 08:12:24;;;;;;;9.67;8.47;;;6.20;99.90;;;;;;5030081;28;20199;-66
2021/12/19 08:14:50;;;;;;;13.23;9.20;;;6.20;99.90;;;;;;5030689;28;20172;-66
2021/12/19 08:17:17;;;;;;;15.07;10.67;;;6.30;99.90;;;;;;5030444;28;20241;-65
2021/12/19 08:19:43;;;;;;;12.60;9.27;;;6.20;99.90;;;;;;5029054;28;20192;-66
2021/12/19 08:22:08;;;;;;;11.50;9.53;;;6.30;99.90;;;;;;5030036;28;20203;-66
2021/12/19 08:24:35;;;;;;;10.30;9.30;;;6.30;99.90;;;;;;5033440;28;20527;-65
2021/12/19 08:27:00;;;;;;;10.17;9.23;;;6.30;99.90;;;;;;5033493;28;20544;-66
2021/12/19 08:29:26;;;;;;;12.07;9.23;;;6.30;99.90;;;;;;5034262;28;20186;-65
2021/12/19 08:31:52;;;;;;;12.90;9.53;;;6.30;99.90;;;;;;5034004;28;20206;-65
2021/12/19 08:34:17;;;;;;;15.57;10.10;;;6.30;99.90;;;;;;5032317;28;20242;-66
2021/12/19 08:36:43;;;;;;;13.37;10.93;;;6.30;99.90;;;;;;5033860;28;20172;-66
2021/12/19 08:39:11;;;;;;;13.93;11.17;;;6.40;99.90;;;;;;5033757;28;20179;-66
2021/12/19 08:41:37;;;;;;;15.47;10.87;;;6.40;99.90;;;;;;5033288;28;20239;-67
2021/12/19 08:44:03;;;;;;;14.37;10.53;;;6.40;99.90;;;;;;5033041;28;20588;-67
2021/12/19 08:46:32;;;;;;;18.13;11.30;;;6.60;99.90;;;;;;5033729;28;20182;-66
2021/12/19 08:48:58;;;;;;;15.47;11.37;;;6.50;99.90;;;;;;5033396;28;20182;-66
2021/12/19 08:51:26;;;;;;;13.40;12.00;;;6.50;99.90;;;;;;5033657;28;20192;-66
2021/12/19 08:53:51;;;;;;;12.57;10.23;;;6.50;99.90;;;;;;5032865;28;20171;-67
2021/12/19 08:56:17;;;;;;;13.07;10.27;;;6.60;99.90;;;;;;5033757;28;20206;-66
2021/12/19 08:58:43;;;;;;;11.87;10.63;;;6.50;99.90;;;;;;5031808;28;20221;-66
2021/12/19 09:01:08;;;;;;;11.30;10.10;;;6.60;99.90;;;;;;5033352;28;20241;-66
2021/12/19 09:03:34;;;;;;;14.97;10.97;;;6.60;99.90;;;;;;5032936;28;20175;-66
2021/12/19 09:06:01;;;;;;;10.27;9.47;;;6.50;99.90;;;;;;5033092;28;20171;-67
2021/12/19 09:08:27;;;;;;;19.30;11.00;;;6.50;99.90;;;;;;5033265;28;20195;-66
2021/12/19 09:10:54;;;;;;;10.90;9.80;;;6.60;99.90;;;;;;5033014;28;20596;-67
2021/12/19 09:13:20;;;;;;;11.70;10.57;;;6.60;99.90;;;;;;5033271;28;20565;-66
2021/12/19 09:15:46;;;;;;;11.70;10.20;;;6.70;99.90;;;;;;5032632;28;20168;-66
2021/12/19 09:18:12;;;;;;;12.93;9.73;;;6.70;99.90;;;;;;5032111;28;20833;-66
2021/12/19 09:20:38;;;;;;;11.87;10.53;;;6.70;99.90;;;;;;5032865;28;20271;-66
2021/12/19 09:23:03;;;;;;;11.77;10.17;;;6.70;99.90;;;;;;5032588;28;20183;-66
2021/12/19 09:25:29;;;;;;;11.63;10.70;;;6.80;99.90;;;;;;5033034;28;20180;-66
2021/12/19 09:27:55;;;;;;;10.23;9.30;;;6.80;99.90;;;;;;5033008;28;20214;-66
2021/12/19 09:30:20;;;;;;;9.57;8.77;;;6.80;99.90;;;;;;5032653;28;20176;-66
2021/12/19 09:32:47;;;;;;;10.43;9.47;;;6.80;99.90;;;;;;5031031;28;20203;-66
2021/12/19 09:35:14;;;;;;;11.70;8.87;;;6.70;99.90;;;;;;5032526;28;20621;-66
2021/12/19 09:37:40;;;;;;;9.60;8.90;;;6.80;99.90;;;;;;5031129;28;20180;-65
2021/12/19 09:40:09;;;;;;;9.50;8.70;;;6.90;99.90;;;;;;5032547;28;20182;-66
2021/12/19 09:42:37;;;;;;;9.60;8.90;;;6.80;99.90;;;;;;5032001;28;20257;-66
2021/12/19 09:45:04;;;;;;;9.97;9.07;;;6.80;99.90;;;;;;5032397;28;20219;-66
2021/12/19 09:47:30;;;;;;;10.60;9.70;;;6.80;99.90;;;;;;5032364;28;20298;-65
2021/12/19 09:49:57;;;;;;;10.27;9.37;;;6.90;99.90;;;;;;5030918;28;20281;-66
2021/12/19 09:52:24;;;;;;;12.17;9.50;;;6.90;99.90;;;;;;5032329;28;20199;-65
2021/12/19 09:54:49;;;;;;;9.97;9.17;;;7.00;99.90;;;;;;5032266;28;20254;-66
2021/12/19 09:57:15;;;;;;;9.67;8.77;;;7.00;99.90;;;;;;5012953;28;20328;-66
2021/12/19 09:59:43;;;;;;;10.17;8.97;;;7.10;99.90;;;;;;5012308;28;20238;-66
2021/12/19 10:02:09;;;;;;;9.40;8.60;;;7.10;99.90;;;;;;5046438;28;20642;-67
2021/12/19 10:04:41;;;;;;;10.23;9.37;;;7.20;99.90;;;;;;5032141;28;20183;-67
2021/12/19 10:07:28;;;;;;;8.83;8.13;;;7.20;99.90;;;;;;5032562;28;20211;-66
2021/12/19 10:10:02;;;;;;;8.50;7.90;;;7.20;99.90;;;;;;5030310;28;20171;-67
2021/12/19 10:15:16;;;;;;;9.70;9.00;;;7.30;99.90;;;;;;5032258;28;20589;-66
2021/12/19 10:17:42;;;;;;;9.47;8.77;;;7.30;99.90;;;;;;5032032;28;20254;-66
2021/12/19 10:20:16;;;;;;;10.13;9.13;;;7.40;99.90;;;;;;5030219;28;20218;-66
2021/12/19 10:22:45;;;;;;;8.80;8.00;;;7.50;99.90;;;;;;5031180;28;20554;-67
2021/12/19 10:25:27;;;;;;;11.17;10.37;;;7.60;99.90;;;;;;5031593;28;20179;-67
2021/12/19 10:27:55;;;;;;;9.17;8.53;;;7.60;99.90;;;;;;5031656;28;20627;-66
2021/12/19 10:30:33;;;;;;;9.73;9.13;;;7.60;99.90;;;;;;5028182;28;20182;-66
2021/12/19 10:33:02;;;;;;;9.80;9.20;;;7.60;99.90;;;;;;5020180;28;20554;-66
2021/12/19 10:35:39;;;;;;;8.23;7.53;;;7.60;99.90;;;;;;5015157;28;20206;-66
2021/12/19 10:38:11;;;;;;;8.33;7.73;;;7.60;99.90;;;;;;5031881;28;20194;-66
2021/12/19 10:40:37;;;;;;;8.20;7.50;;;7.50;99.90;;;;;;5031674;28;20210;-67
2021/12/19 10:43:07;;;;;;;8.47;7.87;;;7.60;99.90;;;;;;5031270;28;20611;-67
2021/12/19 10:45:42;;;;;;;8.40;7.70;;;7.70;99.90;;;;;;5031139;28;20215;-65
2021/12/19 10:48:13;;;;;;;8.33;7.73;;;7.70;99.90;;;;;;5030889;28;20268;-65
2021/12/19 10:50:52;;;;;;;8.73;8.10;;;7.70;99.90;;;;;;5031254;28;20215;-65
2021/12/19 10:53:22;;;;;;;8.90;8.20;;;7.60;99.90;;;;;;5030042;28;20252;-65
2021/12/19 10:55:49;;;;;;;8.73;8.13;;;7.60;99.90;;;;;;5026073;28;20190;-67
2021/12/19 10:58:42;;;;;;;8.33;7.73;;;7.50;99.90;;;;;;5031644;28;20174;-66
2021/12/19 11:01:14;;;;;;;7.57;7.07;;;7.50;99.90;;;;;;5031165;28;20234;-66
2021/12/19 11:03:47;;;;;;;9.23;8.53;;;7.40;99.90;;;;;;5031116;28;20207;-67
2021/12/19 11:06:16;;;;;;;9.13;8.30;;;7.40;99.90;;;;;;5030922;28;20192;-66
2021/12/19 11:08:43;;;;;;;9.33;8.80;;;7.50;99.90;;;;;;5031015;28;20238;-67
2021/12/19 11:11:10;;;;;;;8.53;7.93;;;7.50;99.90;;;;;;5023267;28;20200;-66
2021/12/19 11:13:35;;;;;;;8.37;7.77;;;7.40;99.90;;;;;;5011917;28;20462;-66
2021/12/19 11:16:02;;;;;;;9.57;8.77;;;7.40;99.90;;;;;;5028281;28;20269;-66
2021/12/19 11:18:28;;;;;;;9.07;8.30;;;7.40;99.90;;;;;;5031076;28;20664;-66
2021/12/19 11:20:54;;;;;;;8.43;7.77;;;7.40;99.90;;;;;;5030571;28;20215;-66
2021/12/19 11:23:20;;;;;;;9.43;8.63;;;7.50;99.90;;;;;;5030801;28;20188;-66
2021/12/19 11:25:46;;;;;;;9.77;8.83;;;7.40;99.90;;;;;;5030802;28;20665;-66
2021/12/19 11:28:12;;;;;;;8.90;8.27;;;7.40;99.90;;;;;;5031142;28;20214;-65
2021/12/19 11:30:38;;;;;;;9.67;8.83;;;7.40;99.90;;;;;;5031031;28;20229;-66
2021/12/19 11:33:19;;;;;;;9.77;8.87;;;7.50;99.90;;;;;;5030566;28;20183;-68
2021/12/19 11:35:47;;;;;;;9.37;8.67;;;7.60;99.90;;;;;;5030948;28;20171;-67
2021/12/19 11:38:18;;;;;;;7.50;6.90;;;7.60;99.90;;;;;;5046178;28;20184;-69
2021/12/19 11:40:44;;;;;;;8.00;7.50;;;7.70;99.90;;;;;;5031087;28;20207;-65
2021/12/19 11:43:12;;;;;;;9.47;8.77;;;7.60;99.90;;;;;;5028398;28;20203;-66
2021/12/19 11:45:46;;;;;;;9.40;8.83;;;7.60;99.90;;;;;;5030212;28;20183;-66
2021/12/19 11:48:24;;;;;;;8.90;8.20;;;7.50;99.90;;;;;;5030546;28;20298;-66
2021/12/19 11:50:52;;;;;;;8.97;8.37;;;7.40;99.90;;;;;;5030643;28;20206;-68
2021/12/19 11:53:18;;;;;;;8.70;8.00;;;7.50;99.90;;;;;;5030523;28;20187;-66
2021/12/19 11:55:49;;;;;;;9.23;8.53;;;7.50;99.90;;;;;;5030611;28;20171;-67
2021/12/19 11:58:19;;;;;;;8.57;8.07;;;7.50;99.90;;;;;;5031632;28;20179;-66
2021/12/19 12:00:54;;;;;;;8.83;8.23;;;7.60;99.90;;;;;;5034557;28;20614;-67
2021/12/19 12:03:42;;;;;;;9.03;8.50;;;7.60;99.90;;;;;;5014658;28;20186;-68
2021/12/19 12:06:17;;;;;;;9.90;9.10;;;7.60;99.90;;;;;;5017856;28;20176;-66
2021/12/19 12:09:06;;;;;;;10.10;9.33;;;7.60;99.90;;;;;;5032422;28;20568;-67
2021/12/19 12:11:34;;;;;;;11.37;10.43;;;7.60;99.90;;;;;;5034404;28;20192;-67
2021/12/19 12:14:23;;;;;;;11.27;10.47;;;7.50;99.90;;;;;;5033910;28;20186;-67
2021/12/19 12:16:56;;;;;;;11.20;10.37;;;7.50;99.90;;;;;;5034435;28;20182;-67
2021/12/19 12:19:42;;;;;;;11.03;10.20;;;7.50;99.90;;;;;;5033636;28;20184;-67
2021/12/19 12:22:37;;;;;;;10.10;9.50;;;7.50;99.90;;;;;;5014227;28;20232;-67
2021/12/19 12:25:06;;;;;;;10.97;10.10;;;7.60;99.90;;;;;;5027567;28;20188;-67
2021/12/19 12:27:39;;;;;;;9.67;9.13;;;7.60;99.90;;;;;;5034391;28;20242;-66
2021/12/19 12:30:29;;;;;;;9.80;8.90;;;7.60;99.90;;;;;;5033828;28;20172;-67
2021/12/19 12:32:58;;;;;;;9.47;8.87;;;7.60;99.90;;;;;;5032531;28;20198;-65
2021/12/19 12:35:25;;;;;;;11.17;10.30;;;7.70;99.90;;;;;;5034169;28;20667;-66
2021/12/19 12:37:54;;;;;;;10.67;9.97;;;7.70;99.90;;;;;;5033662;28;20183;-66
2021/12/19 12:40:29;;;;;;;10.80;9.90;;;7.60;99.90;;;;;;5033830;28;20668;-65
2021/12/19 12:42:56;;;;;;;9.57;8.90;;;7.60;99.90;;;;;;5038544;22;20223;-65
2021/12/19 12:45:23;;;;;;;9.03;8.33;;;7.50;99.90;;;;;;5014146;28;20199;-65
2021/12/19 12:47:49;;;;;;;9.93;8.50;;;7.40;99.90;;;;;;5011646;28;20204;-65
2021/12/19 12:50:15;;;;;;;8.30;7.70;;;7.30;99.90;;;;;;5013936;28;20242;-66
2021/12/19 12:52:40;;;;;;;8.13;7.43;;;7.30;99.90;;;;;;5013664;28;20200;-66
2021/12/19 12:55:07;;;;;;;9.13;8.43;;;7.20;99.90;;;;;;5013051;28;20173;-64
2021/12/19 12:57:35;;;;;;;9.07;8.23;;;7.20;99.90;;;;;;5013928;28;20225;-65
2021/12/19 13:00:01;;;;;;;8.63;8.07;;;7.30;99.90;;;;;;5013588;28;20176;-65
2021/12/19 13:02:41;;;;;;;7.67;7.23;;;7.30;99.90;;;;;;5013879;28;20200;-65
2021/12/19 13:05:11;;;;;;;8.23;7.73;;;7.40;99.90;;;;;;5013568;28;20658;-65
2021/12/19 13:07:36;;;;;;;7.53;7.13;;;7.30;99.90;;;;;;5013804;28;20219;-67
2021/12/19 13:10:03;;;;;;;10.57;9.60;;;7.30;99.90;;;;;;5012929;28;20184;-66
2021/12/19 13:12:33;;;;;;;11.57;10.47;;;7.30;99.90;;;;;;5013312;28;20192;-67
2021/12/19 13:15:14;;;;;;;8.57;7.87;;;7.30;99.90;;;;;;5003354;28;20214;-65
2021/12/19 13:17:50;;;;;;;7.50;7.10;;;7.30;99.90;;;;;;5012700;28;20675;-65
2021/12/19 13:20:18;;;;;;;7.67;7.27;;;7.30;99.90;;;;;;5011916;28;20255;-65
2021/12/19 13:22:48;;;;;;;8.37;7.87;;;7.30;99.90;;;;;;5012748;28;20712;-66
2021/12/19 13:25:19;;;;;;;9.77;9.00;;;7.30;99.90;;;;;;5013492;28;20222;-67
2021/12/19 13:27:47;;;;;;;7.87;7.30;;;7.40;99.90;;;;;;5013573;28;20204;-67
2021/12/19 13:30:13;;;;;;;7.57;7.17;;;7.40;99.90;;;;;;5012585;28;20161;-65
2021/12/19 13:32:46;;;;;;;7.80;7.20;;;7.40;99.90;;;;;;5012586;28;20192;-65
2021/12/19 13:35:14;;;;;;;7.87;7.43;;;7.40;99.90;;;;;;4993608;28;20650;-67
2021/12/19 13:37:57;;;;;;;8.37;7.93;;;7.40;99.90;;;;;;4993444;28;20697;-66
2021/12/19 13:40:47;;;;;;;8.83;8.23;;;7.50;99.90;;;;;;4993367;28;20720;-66
2021/12/19 13:43:14;;;;;;;7.73;7.30;;;7.50;99.90;;;;;;4994490;28;20207;-67
2021/12/19 13:45:43;;;;;;;7.80;7.40;;;7.50;99.90;;;;;;4994167;28;20206;-66
2021/12/19 13:48:32;;;;;;;7.47;7.13;;;7.50;99.90;;;;;;5012190;28;20231;-67
2021/12/19 13:51:03;;;;;;;7.70;7.30;;;7.60;99.90;;;;;;5013161;28;20179;-67